Time;durP1;ratioP1;P1;durP2;ratioP2;P2;SDS_P1;SDS_P2;PMS_P1;PMS_P2;Temp;Humidity;BMP_temperature;BMP_pressure;BME280_temperature;BME280_humidity;BME280_pressure;Samples;Min_cycle;Max_cycle;Signal;HPM_P1;HPM_P2
2021/08/08 00:01:21;;;;;;;2.58;1.10;;;;;;;;;;5110047;28;20043;-69
2021/08/08 00:04:12;;;;;;;1.50;1.02;;;;;;;;;;5111186;27;20385;-69
2021/08/08 00:06:39;;;;;;;4.15;1.88;;;;;;;;;;5111257;28;20038;-69
2021/08/08 00:09:05;;;;;;;3.83;0.80;;;;;;;;;;5109992;28;20026;-70
2021/08/08 00:11:31;;;;;;;1.60;0.77;;;;;;;;;;5109580;28;20020;-70
2021/08/08 00:15:16;;;;;;;1.85;1.00;;;;;;;;;;5091707;27;20398;-69
2021/08/08 00:17:42;;;;;;;3.13;1.30;;;;;;;;;;5090642;28;20032;-69
2021/08/08 00:20:09;;;;;;;3.35;1.63;;;;;;;;;;5090941;28;20028;-69
2021/08/08 00:24:30;;;;;;;2.58;1.13;;;;;;;;;;5111523;27;20397;-70
2021/08/08 00:26:57;;;;;;;3.65;1.40;;;;;;;;;;5111405;28;20480;-70
2021/08/08 00:29:23;;;;;;;3.00;1.50;;;;;;;;;;5110080;28;20026;-71
2021/08/08 00:31:49;;;;;;;4.05;1.67;;;;;;;;;;5110918;28;20020;-70
2021/08/08 00:36:42;;;;;;;3.08;1.38;;;;;;;;;;5111994;27;20522;-70
2021/08/08 00:39:20;;;;;;;2.17;1.40;;;;;;;;;;5111119;27;20768;-69
2021/08/08 00:41:47;;;;;;;3.97;1.30;;;;;;;;;;5111677;28;20085;-69
2021/08/08 00:44:13;;;;;;;2.85;1.55;;;;;;;;;;5110059;28;20028;-69
2021/08/08 00:48:46;;;;;;;2.42;1.10;;;;;;;;;;5111940;27;20506;-69
2021/08/08 00:51:12;;;;;;;4.13;1.42;;;;;;;;;;5111384;28;20069;-69
2021/08/08 00:53:39;;;;;;;2.13;1.15;;;;;;;;;;5110933;28;20028;-69
2021/08/08 00:56:05;;;;;;;9.70;1.67;;;;;;;;;;5109992;28;20024;-70
2021/08/08 00:59:26;;;;;;;2.00;1.23;;;;;;;;;;5070850;28;20407;-69
2021/08/08 01:01:54;;;;;;;2.22;1.20;;;;;;;;;;5070987;28;20540;-69
2021/08/08 01:04:40;;;;;;;4.90;1.38;;;;;;;;;;5070697;28;20071;-69
2021/08/08 01:07:08;;;;;;;2.10;1.13;;;;;;;;;;5070622;28;20025;-69
2021/08/08 01:09:35;;;;;;;3.25;1.25;;;;;;;;;;5070593;28;20032;-69
2021/08/08 01:12:02;;;;;;;3.08;1.35;;;;;;;;;;5070668;28;20503;-69
2021/08/08 01:19:52;;;;;;;2.88;1.25;;;;;;;;;;5111642;27;20392;-70
2021/08/08 01:25:50;;;;;;;2.05;1.08;;;;;;;;;;5111648;27;20397;-69
2021/08/08 01:28:16;;;;;;;2.03;1.10;;;;;;;;;;5111062;28;20028;-68
2021/08/08 01:30:43;;;;;;;2.95;1.20;;;;;;;;;;5111265;28;20026;-68
2021/08/08 01:35:14;;;;;;;3.17;1.20;;;;;;;;;;5111104;27;20450;-69
2021/08/08 01:37:40;;;;;;;2.53;1.65;;;;;;;;;;5111381;28;20023;-68
2021/08/08 01:40:27;;;;;;;2.22;0.98;;;;;;;;;;5111458;28;20077;-69
2021/08/08 01:42:54;;;;;;;2.20;1.20;;;;;;;;;;5110718;27;20482;-68
2021/08/08 01:47:18;;;;;;;2.72;1.35;;;;;;;;;;5111362;27;20384;-68
2021/08/08 01:51:53;;;;;;;3.83;1.20;;;;;;;;;;5111881;27;20400;-68
2021/08/08 01:54:19;;;;;;;3.00;1.00;;;;;;;;;;5111554;28;20024;-69
2021/08/08 01:56:46;;;;;;;3.00;1.20;;;;;;;;;;5110862;28;20059;-68
2021/08/08 01:59:56;;;;;;;2.40;1.40;;;;;;;;;;5111414;27;20396;-69
2021/08/08 02:02:22;;;;;;;1.35;0.95;;;;;;;;;;5109594;28;20035;-69
2021/08/08 02:04:48;;;;;;;1.77;1.10;;;;;;;;;;5109938;28;20030;-68
2021/08/08 02:07:15;;;;;;;2.58;1.25;;;;;;;;;;5111278;28;20020;-69
2021/08/08 02:10:21;;;;;;;1.73;1.00;;;;;;;;;;5111139;27;20381;-68
2021/08/08 02:12:47;;;;;;;1.83;1.00;;;;;;;;;;5111554;28;20472;-68
2021/08/08 02:18:02;;;;;;;1.45;0.85;;;;;;;;;;5111097;27;20405;-69
2021/08/08 02:20:28;;;;;;;2.72;1.42;;;;;;;;;;5111281;28;20066;-68
2021/08/08 02:22:54;;;;;;;1.35;0.80;;;;;;;;;;5111180;28;20020;-68
2021/08/08 02:25:20;;;;;;;2.45;1.25;;;;;;;;;;5110811;28;20031;-68
2021/08/08 02:30:01;;;;;;;3.88;1.15;;;;;;;;;;5112181;27;20392;-68
2021/08/08 02:32:27;;;;;;;1.92;1.05;;;;;;;;;;5111036;28;20035;-68
2021/08/08 02:35:39;;;;;;;6.43;1.60;;;;;;;;;;5111420;27;20392;-68
2021/08/08 02:38:46;;;;;;;2.47;1.02;;;;;;;;;;5111053;27;20385;-68
2021/08/08 02:41:12;;;;;;;3.78;1.35;;;;;;;;;;5111388;28;20024;-68
2021/08/08 02:43:38;;;;;;;8.70;1.40;;;;;;;;;;5111383;28;20028;-68
2021/08/08 02:46:05;;;;;;;3.28;1.38;;;;;;;;;;5110856;28;20077;-68
2021/08/08 02:48:32;;;;;;;1.75;1.20;;;;;;;;;;5111162;28;20027;-68
2021/08/08 02:53:24;;;;;;;1.60;1.13;;;;;;;;;;5111075;27;20874;-69
2021/08/08 02:55:51;;;;;;;2.28;1.15;;;;;;;;;;5111324;28;20460;-68
2021/08/08 02:58:17;;;;;;;2.15;1.00;;;;;;;;;;5110046;28;20028;-68
2021/08/08 03:00:43;;;;;;;1.30;1.00;;;;;;;;;;5110901;28;20095;-68
2021/08/08 03:03:09;;;;;;;2.90;0.90;;;;;;;;;;5111250;28;20030;-69
2021/08/08 03:05:35;;;;;;;4.82;0.95;;;;;;;;;;5109483;28;20024;-68
2021/08/08 03:08:48;;;;;;;4.32;1.60;;;;;;;;;;5111899;27;20446;-69
2021/08/08 03:11:14;;;;;;;1.88;1.08;;;;;;;;;;5111403;28;20093;-68
2021/08/08 03:13:40;;;;;;;1.38;0.98;;;;;;;;;;5110922;28;20027;-68
2021/08/08 03:16:07;;;;;;;3.33;1.25;;;;;;;;;;5111319;28;20069;-68
2021/08/08 03:18:33;;;;;;;4.25;1.02;;;;;;;;;;5109878;28;20486;-68
2021/08/08 03:21:00;;;;;;;3.65;1.58;;;;;;;;;;5110877;28;20073;-68
2021/08/08 03:23:26;;;;;;;3.22;1.10;;;;;;;;;;5111141;28;20024;-68
2021/08/08 03:28:31;;;;;;;6.18;1.25;;;;;;;;;;5070638;28;20395;-69
2021/08/08 03:30:57;;;;;;;9.82;1.33;;;;;;;;;;5071010;28;20493;-69
2021/08/08 03:34:33;;;;;;;3.88;1.33;;;;;;;;;;5111413;27;20397;-69
2021/08/08 03:42:44;;;;;;;2.45;1.30;;;;;;;;;;5110941;27;20310;-68
2021/08/08 03:45:10;;;;;;;2.53;1.33;;;;;;;;;;5110120;28;20081;-68
2021/08/08 03:47:36;;;;;;;3.08;1.10;;;;;;;;;;5110961;28;20468;-68
2021/08/08 03:50:03;;;;;;;2.95;0.90;;;;;;;;;;5111297;28;20035;-68
2021/08/08 03:54:43;;;;;;;4.05;1.55;;;;;;;;;;5071115;28;20395;-68
2021/08/08 03:57:09;;;;;;;11.00;1.52;;;;;;;;;;5071013;28;20107;-68
2021/08/08 03:59:35;;;;;;;4.65;1.70;;;;;;;;;;5069447;28;20049;-69
2021/08/08 04:02:01;;;;;;;3.50;1.63;;;;;;;;;;5070391;28;20032;-69
2021/08/08 04:04:40;;;;;;;2.97;1.50;;;;;;;;;;5071253;28;20425;-68
2021/08/08 04:07:06;;;;;;;2.30;1.25;;;;;;;;;;5069504;28;20024;-68
2021/08/08 04:12:36;;;;;;;3.80;1.92;;;;;;;;;;5012898;22;1575849;-69
2021/08/08 04:16:11;;;;;;;1.85;1.15;;;;;;;;;;5111628;27;20393;-68
2021/08/08 04:20:19;;;;;;;2.83;1.20;;;;;;;;;;5071375;28;20403;-68
2021/08/08 04:22:45;;;;;;;6.03;1.35;;;;;;;;;;5070714;28;20024;-67
2021/08/08 04:25:12;;;;;;;3.58;1.35;;;;;;;;;;5071696;28;20428;-70
2021/08/08 04:27:38;;;;;;;3.92;1.48;;;;;;;;;;5071569;28;20032;-67
2021/08/08 04:30:04;;;;;;;4.93;1.80;;;;;;;;;;5069593;28;20493;-69
2021/08/08 04:32:30;;;;;;;4.38;2.03;;;;;;;;;;5071544;28;20103;-69
2021/08/08 04:34:56;;;;;;;4.47;1.73;;;;;;;;;;5071316;28;20021;-69
2021/08/08 04:38:00;;;;;;;7.00;1.85;;;;;;;;;;5112401;27;20515;-68
2021/08/08 04:40:51;;;;;;;5.68;1.60;;;;;;;;;;5113000;27;20388;-68
2021/08/08 04:43:17;;;;;;;4.25;1.60;;;;;;;;;;5112983;28;20051;-69
2021/08/08 04:49:39;;;;;;;2.33;1.20;;;;;;;;;;5073410;28;20987;-71
2021/08/08 04:52:05;;;;;;;3.40;1.20;;;;;;;;;;5070990;28;20025;-71
2021/08/08 04:54:31;;;;;;;8.27;1.40;;;;;;;;;;5071567;28;20499;-70
2021/08/08 04:56:57;;;;;;;2.75;1.20;;;;;;;;;;5069953;28;20100;-70
2021/08/08 05:00:54;;;;;;;3.38;1.10;;;;;;;;;;5112698;27;20400;-69
2021/08/08 05:03:20;;;;;;;3.08;1.25;;;;;;;;;;5112182;28;20023;-69
2021/08/08 05:05:46;;;;;;;4.30;1.30;;;;;;;;;;5111653;28;20028;-68
2021/08/08 05:08:12;;;;;;;4.05;1.20;;;;;;;;;;5111781;28;20020;-68
2021/08/08 05:10:39;;;;;;;1.80;1.10;;;;;;;;;;5111607;28;20020;-69
2021/08/08 05:13:05;;;;;;;5.10;1.10;;;;;;;;;;5111394;28;20498;-69
2021/08/08 05:15:31;;;;;;;3.72;1.40;;;;;;;;;;5111489;28;20103;-69
2021/08/08 05:18:35;;;;;;;1.95;1.10;;;;;;;;;;5112851;27;20397;-68
2021/08/08 05:21:02;;;;;;;3.50;1.58;;;;;;;;;;5111269;28;20375;-69
2021/08/08 05:24:48;;;;;;;2.30;0.90;;;;;;;;;;5112129;27;20397;-69
2021/08/08 05:27:14;;;;;;;1.52;0.70;;;;;;;;;;5109918;28;20020;-69
2021/08/08 05:30:29;;;;;;;2.25;1.10;;;;;;;;;;5071616;27;20399;-68
2021/08/08 05:32:55;;;;;;;3.05;1.23;;;;;;;;;;5069711;28;20447;-69
2021/08/08 05:35:21;;;;;;;8.40;2.38;;;;;;;;;;5070444;28;20103;-69
2021/08/08 05:37:47;;;;;;;7.50;2.75;;;;;;;;;;5070917;28;20027;-70
2021/08/08 05:40:13;;;;;;;6.15;2.65;;;;;;;;;;5070502;28;20381;-69
2021/08/08 05:42:46;;;;;;;6.80;2.95;;;;;;;;;;5070898;28;20087;-70
2021/08/08 05:45:12;;;;;;;7.22;2.50;;;;;;;;;;5069673;28;20025;-71
2021/08/08 05:47:38;;;;;;;8.63;2.53;;;;;;;;;;5070191;28;20057;-71
2021/08/08 05:50:05;;;;;;;5.75;2.67;;;;;;;;;;5070461;28;20086;-70
2021/08/08 05:52:31;;;;;;;4.45;1.90;;;;;;;;;;5070605;28;20062;-71
2021/08/08 05:55:00;;;;;;;5.97;2.55;;;;;;;;;;5069923;28;20017;-70
2021/08/08 05:57:26;;;;;;;5.25;1.83;;;;;;;;;;5069016;28;20480;-69
2021/08/08 05:59:52;;;;;;;4.70;2.10;;;;;;;;;;5070327;28;20028;-69
2021/08/08 06:02:34;;;;;;;6.32;2.40;;;;;;;;;;5111257;27;20402;-70
2021/08/08 06:05:00;;;;;;;7.50;2.35;;;;;;;;;;5111690;28;20434;-70
2021/08/08 06:07:28;;;;;;;6.53;2.25;;;;;;;;;;5111502;28;20038;-70
2021/08/08 06:09:54;;;;;;;3.47;1.30;;;;;;;;;;5109598;28;20503;-70
2021/08/08 06:12:20;;;;;;;7.32;1.83;;;;;;;;;;5111164;28;20058;-70
2021/08/08 06:14:47;;;;;;;3.92;1.70;;;;;;;;;;5111280;28;20024;-70
2021/08/08 06:17:13;;;;;;;6.40;1.75;;;;;;;;;;5110766;28;20088;-70
2021/08/08 06:19:39;;;;;;;4.47;1.75;;;;;;;;;;5111041;28;20115;-70
2021/08/08 06:23:52;;;;;;;2.70;1.30;;;;;;;;;;5111097;27;20403;-70
2021/08/08 06:28:13;;;;;;;2.38;1.05;;;;;;;;;;5071491;28;20899;-70
2021/08/08 06:30:39;;;;;;;4.75;1.45;;;;;;;;;;5069342;28;20503;-70
2021/08/08 06:33:05;;;;;;;5.35;1.83;;;;;;;;;;5070732;28;20074;-69
2021/08/08 06:35:33;;;;;;;4.03;1.83;;;;;;;;;;5070692;28;20044;-69
2021/08/08 06:37:59;;;;;;;3.95;1.60;;;;;;;;;;5070446;28;20032;-70
2021/08/08 06:40:25;;;;;;;3.88;1.50;;;;;;;;;;5069307;28;20496;-69
2021/08/08 06:42:51;;;;;;;3.75;1.35;;;;;;;;;;5070467;28;20025;-70
2021/08/08 06:45:17;;;;;;;3.28;1.25;;;;;;;;;;5070211;28;20032;-70
2021/08/08 06:47:43;;;;;;;2.58;1.40;;;;;;;;;;5070372;28;20037;-70
2021/08/08 06:50:10;;;;;;;3.33;1.38;;;;;;;;;;5070442;28;20096;-71
2021/08/08 06:52:36;;;;;;;4.43;1.55;;;;;;;;;;5069997;28;20032;-70
2021/08/08 06:55:02;;;;;;;2.67;1.73;;;;;;;;;;5069055;28;20078;-70
2021/08/08 06:57:46;;;;;;;3.45;1.58;;;;;;;;;;5111825;27;20520;-69
2021/08/08 07:00:13;;;;;;;6.05;2.00;;;;;;;;;;5111494;28;20484;-69
2021/08/08 07:02:39;;;;;;;5.90;2.15;;;;;;;;;;5111390;28;20027;-69
2021/08/08 07:05:05;;;;;;;2.42;1.60;;;;;;;;;;5110882;28;20020;-70
2021/08/08 07:07:32;;;;;;;4.38;2.15;;;;;;;;;;5111151;28;20511;-69
2021/08/08 07:09:58;;;;;;;3.60;2.03;;;;;;;;;;5111440;28;20038;-70
2021/08/08 07:12:24;;;;;;;7.80;2.13;;;;;;;;;;5110767;28;20016;-70
2021/08/08 07:14:51;;;;;;;5.72;2.58;;;;;;;;;;5111006;28;20050;-70
2021/08/08 07:17:17;;;;;;;3.85;1.60;;;;;;;;;;5111010;28;20036;-70
2021/08/08 07:19:43;;;;;;;2.85;1.75;;;;;;;;;;5110671;28;20426;-70
2021/08/08 07:22:10;;;;;;;4.90;2.17;;;;;;;;;;5111176;28;20031;-72
2021/08/08 07:24:37;;;;;;;5.07;2.03;;;;;;;;;;5111016;28;20066;-70
2021/08/08 07:27:03;;;;;;;5.28;2.40;;;;;;;;;;5110311;28;20027;-69
2021/08/08 07:29:29;;;;;;;3.38;1.90;;;;;;;;;;5110895;28;20383;-70
2021/08/08 07:31:55;;;;;;;2.95;1.90;;;;;;;;;;5110693;28;20024;-70
2021/08/08 07:34:22;;;;;;;5.10;1.98;;;;;;;;;;5110271;28;20024;-71
2021/08/08 07:38:25;;;;;;;4.05;1.65;;;;;;;;;;5099155;27;1608099;-69
2021/08/08 07:40:51;;;;;;;2.92;1.52;;;;;;;;;;5131442;28;20038;-70
2021/08/08 07:43:18;;;;;;;6.78;1.88;;;;;;;;;;5131822;28;20546;-71
2021/08/08 07:45:44;;;;;;;5.53;1.83;;;;;;;;;;5131798;28;20069;-70
2021/08/08 07:48:10;;;;;;;4.07;1.85;;;;;;;;;;5131216;28;20054;-70
2021/08/08 07:50:36;;;;;;;3.55;1.50;;;;;;;;;;5131692;28;20027;-70
2021/08/08 07:53:02;;;;;;;2.75;1.20;;;;;;;;;;5131738;28;20043;-70
2021/08/08 07:55:55;;;;;;;3.35;1.70;;;;;;;;;;5110937;27;20385;-70
2021/08/08 07:58:22;;;;;;;5.47;2.53;;;;;;;;;;5111594;28;20107;-71
2021/08/08 08:00:49;;;;;;;7.25;1.95;;;;;;;;;;5111389;28;20031;-69
2021/08/08 08:03:15;;;;;;;3.38;1.58;;;;;;;;;;5111301;28;20032;-70
2021/08/08 08:05:41;;;;;;;3.42;1.40;;;;;;;;;;5111202;28;20027;-70
2021/08/08 08:09:02;;;;;;;3.80;1.50;;;;;;;;;;5111089;27;20458;-71
2021/08/08 08:11:28;;;;;;;4.18;1.77;;;;;;;;;;5111415;28;20024;-70
2021/08/08 08:13:54;;;;;;;4.38;1.75;;;;;;;;;;5111225;28;20467;-71
2021/08/08 08:16:20;;;;;;;4.78;1.80;;;;;;;;;;5109504;28;20031;-71
2021/08/08 08:19:15;;;;;;;4.57;1.80;;;;;;;;;;5091363;27;20378;-71
2021/08/08 08:21:42;;;;;;;3.90;1.70;;;;;;;;;;5090942;28;20027;-70
2021/08/08 08:24:08;;;;;;;4.53;1.80;;;;;;;;;;5090577;28;20024;-71
2021/08/08 08:26:34;;;;;;;2.83;1.20;;;;;;;;;;5090933;28;20035;-71
2021/08/08 08:29:00;;;;;;;2.47;1.50;;;;;;;;;;5090505;28;20027;-70
2021/08/08 08:31:26;;;;;;;4.68;1.75;;;;;;;;;;5090798;28;20063;-70
2021/08/08 08:33:53;;;;;;;5.57;1.92;;;;;;;;;;5090831;28;20078;-70
2021/08/08 08:36:19;;;;;;;3.75;1.42;;;;;;;;;;5090364;28;20107;-70
2021/08/08 08:38:45;;;;;;;4.75;1.80;;;;;;;;;;5090543;28;20035;-70
2021/08/08 08:41:14;;;;;;;2.92;1.20;;;;;;;;;;5090672;28;20515;-70
2021/08/08 08:43:40;;;;;;;6.15;1.63;;;;;;;;;;5090329;28;20047;-71
2021/08/08 08:46:07;;;;;;;4.43;1.20;;;;;;;;;;5090106;28;20451;-71
2021/08/08 08:48:35;;;;;;;4.85;1.55;;;;;;;;;;5090455;28;20023;-70
2021/08/08 08:51:01;;;;;;;2.58;1.17;;;;;;;;;;5089920;28;20055;-69
2021/08/08 08:53:27;;;;;;;4.43;1.40;;;;;;;;;;5090329;28;20027;-70
2021/08/08 08:55:54;;;;;;;3.67;1.60;;;;;;;;;;5090196;28;20052;-71
2021/08/08 08:58:21;;;;;;;2.63;1.40;;;;;;;;;;5089935;28;20035;-71
2021/08/08 09:00:47;;;;;;;4.30;1.67;;;;;;;;;;5088858;28;20028;-70
2021/08/08 09:03:13;;;;;;;2.17;1.13;;;;;;;;;;5088908;28;20481;-70
2021/08/08 09:05:39;;;;;;;2.80;1.40;;;;;;;;;;5089760;28;20052;-70
2021/08/08 09:08:06;;;;;;;3.72;1.42;;;;;;;;;;5090311;28;20028;-70
2021/08/08 09:10:32;;;;;;;5.78;1.52;;;;;;;;;;5090342;28;20028;-70
2021/08/08 09:12:59;;;;;;;4.53;1.65;;;;;;;;;;5089530;28;20036;-70
2021/08/08 09:15:51;;;;;;;3.38;1.38;;;;;;;;;;5089851;28;20533;-70
2021/08/08 09:18:20;;;;;;;2.40;1.40;;;;;;;;;;5088041;28;20040;-70
2021/08/08 09:20:47;;;;;;;1.95;1.20;;;;;;;;;;5089973;28;20051;-70
2021/08/08 09:23:14;;;;;;;3.70;1.38;;;;;;;;;;5089756;28;20028;-70
2021/08/08 09:25:49;;;;;;;1.55;1.15;;;;;;;;;;5089385;28;20032;-70
2021/08/08 09:28:15;;;;;;;2.45;1.23;;;;;;;;;;5090310;28;20425;-70
2021/08/08 09:30:42;;;;;;;3.13;1.20;;;;;;;;;;5075619;28;20048;-71
2021/08/08 09:33:10;;;;;;;2.13;1.02;;;;;;;;;;5075707;28;20020;-70
2021/08/08 09:35:37;;;;;;;1.90;1.00;;;;;;;;;;5076016;28;20024;-69
2021/08/08 09:38:04;;;;;;;1.55;1.00;;;;;;;;;;5076024;28;20033;-70
2021/08/08 09:40:32;;;;;;;2.33;1.20;;;;;;;;;;5075716;28;20419;-69
2021/08/08 09:42:58;;;;;;;3.33;1.08;;;;;;;;;;5076257;28;20381;-70
2021/08/08 09:45:37;;;;;;;2.22;0.80;;;;;;;;;;5076070;28;20095;-70
2021/08/08 09:48:03;;;;;;;3.15;1.40;;;;;;;;;;5075507;28;20028;-70
2021/08/08 09:50:30;;;;;;;2.35;1.30;;;;;;;;;;5075753;28;20025;-69
2021/08/08 09:53:04;;;;;;;2.88;1.30;;;;;;;;;;5076038;28;20021;-70
2021/08/08 09:55:37;;;;;;;3.05;1.45;;;;;;;;;;5075294;28;20020;-70
2021/08/08 09:58:04;;;;;;;3.15;1.30;;;;;;;;;;5075663;28;20504;-69
2021/08/08 10:00:35;;;;;;;2.63;1.30;;;;;;;;;;5075289;28;20028;-69
2021/08/08 10:03:02;;;;;;;3.50;1.35;;;;;;;;;;5075426;28;20103;-69
2021/08/08 10:05:29;;;;;;;3.13;1.10;;;;;;;;;;5074247;28;20435;-70
2021/08/08 10:07:56;;;;;;;5.03;1.50;;;;;;;;;;5075117;28;20025;-70
2021/08/08 10:10:23;;;;;;;1.77;1.15;;;;;;;;;;5076039;28;20020;-70
2021/08/08 10:12:49;;;;;;;1.75;1.20;;;;;;;;;;5075438;28;20024;-70
2021/08/08 10:15:15;;;;;;;4.55;1.17;;;;;;;;;;5074845;28;20031;-70
2021/08/08 10:17:42;;;;;;;2.05;1.25;;;;;;;;;;5073737;28;20136;-69
2021/08/08 10:20:09;;;;;;;2.45;1.35;;;;;;;;;;5075293;28;20024;-69
2021/08/08 10:22:38;;;;;;;2.90;1.40;;;;;;;;;;5074821;28;20028;-70
2021/08/08 10:25:05;;;;;;;1.83;1.00;;;;;;;;;;5075238;28;20025;-69
2021/08/08 10:27:31;;;;;;;2.22;1.10;;;;;;;;;;5075115;28;20492;-70
2021/08/08 10:29:58;;;;;;;3.03;1.25;;;;;;;;;;5074688;28;20025;-70
2021/08/08 10:32:25;;;;;;;2.97;1.27;;;;;;;;;;5073793;28;20047;-70
2021/08/08 10:34:52;;;;;;;3.03;1.73;;;;;;;;;;5075360;28;20095;-69
2021/08/08 10:37:21;;;;;;;4.07;1.38;;;;;;;;;;5074469;28;20020;-71
2021/08/08 10:39:47;;;;;;;2.67;1.60;;;;;;;;;;5074879;28;20024;-71
2021/08/08 10:42:14;;;;;;;1.77;1.10;;;;;;;;;;5073886;28;20082;-71
2021/08/08 10:44:51;;;;;;;3.10;1.35;;;;;;;;;;5074416;28;20025;-70
2021/08/08 10:47:24;;;;;;;1.45;1.02;;;;;;;;;;5075166;28;20400;-71
2021/08/08 10:49:51;;;;;;;2.47;1.00;;;;;;;;;;5074273;28;20135;-71
2021/08/08 10:52:17;;;;;;;2.17;1.30;;;;;;;;;;5074615;28;20048;-71
2021/08/08 10:54:47;;;;;;;4.43;1.30;;;;;;;;;;5074660;28;20078;-70
2021/08/08 10:57:22;;;;;;;1.73;1.20;;;;;;;;;;5074152;28;20036;-71
2021/08/08 10:59:49;;;;;;;2.30;1.20;;;;;;;;;;5074690;28;20024;-71
2021/08/08 11:02:17;;;;;;;4.75;1.65;;;;;;;;;;5074389;28;20016;-72
2021/08/08 11:04:43;;;;;;;2.28;1.40;;;;;;;;;;5074016;28;20036;-71
2021/08/08 11:07:10;;;;;;;4.50;1.70;;;;;;;;;;5074339;28;20025;-71
2021/08/08 11:09:42;;;;;;;2.90;1.00;;;;;;;;;;5074271;28;20033;-71
2021/08/08 11:12:09;;;;;;;2.22;1.38;;;;;;;;;;5074114;28;20024;-69
2021/08/08 11:14:35;;;;;;;3.38;1.48;;;;;;;;;;5074194;28;20432;-70
2021/08/08 11:17:10;;;;;;;2.30;1.10;;;;;;;;;;5073911;28;20435;-70
2021/08/08 11:19:36;;;;;;;3.33;1.17;;;;;;;;;;5073781;28;20052;-70
2021/08/08 11:22:10;;;;;;;3.25;1.33;;;;;;;;;;5074063;28;20535;-70
2021/08/08 11:24:37;;;;;;;2.95;1.08;;;;;;;;;;5074045;28;20028;-71
2021/08/08 11:27:04;;;;;;;1.20;0.88;;;;;;;;;;5073850;28;20519;-71
2021/08/08 11:29:30;;;;;;;4.65;1.58;;;;;;;;;;5073918;28;20108;-70
2021/08/08 11:32:00;;;;;;;2.15;1.27;;;;;;;;;;5073491;28;20031;-70
2021/08/08 11:34:27;;;;;;;3.28;1.25;;;;;;;;;;5073966;28;20029;-71
2021/08/08 11:36:56;;;;;;;3.83;1.65;;;;;;;;;;5073759;28;20178;-70
2021/08/08 11:39:23;;;;;;;4.20;1.20;;;;;;;;;;5073512;28;20027;-70
2021/08/08 11:41:49;;;;;;;2.80;1.50;;;;;;;;;;5073776;28;20103;-71
2021/08/08 11:44:17;;;;;;;2.33;1.52;;;;;;;;;;5073662;28;20020;-71
2021/08/08 11:46:50;;;;;;;2.47;1.50;;;;;;;;;;5073438;28;20027;-69
2021/08/08 11:49:21;;;;;;;2.90;1.33;;;;;;;;;;5073606;28;20012;-70
2021/08/08 11:51:56;;;;;;;1.77;1.10;;;;;;;;;;5073370;28;20024;-71
2021/08/08 11:54:27;;;;;;;2.55;1.23;;;;;;;;;;5073337;28;20025;-71
2021/08/08 11:56:53;;;;;;;2.20;1.20;;;;;;;;;;5072220;28;20028;-71
2021/08/08 11:59:26;;;;;;;6.30;1.73;;;;;;;;;;5073932;28;20492;-71
2021/08/08 12:02:07;;;;;;;5.28;1.40;;;;;;;;;;5073185;28;20457;-71
2021/08/08 12:04:35;;;;;;;2.42;1.05;;;;;;;;;;5073795;28;20027;-71
2021/08/08 12:07:03;;;;;;;2.25;1.42;;;;;;;;;;5073082;28;20074;-70
2021/08/08 12:09:30;;;;;;;3.13;1.30;;;;;;;;;;5072015;28;20029;-71
2021/08/08 12:11:57;;;;;;;2.97;1.67;;;;;;;;;;5073386;28;20078;-71
2021/08/08 12:14:32;;;;;;;3.33;1.30;;;;;;;;;;5073284;28;20020;-70
2021/08/08 12:17:06;;;;;;;2.63;1.38;;;;;;;;;;5073310;28;20033;-70
2021/08/08 12:19:33;;;;;;;4.30;1.70;;;;;;;;;;5072049;28;20028;-71
2021/08/08 12:22:20;;;;;;;4.13;1.52;;;;;;;;;;5072944;28;20366;-71
2021/08/08 12:24:46;;;;;;;2.47;1.20;;;;;;;;;;5073161;28;20099;-72
2021/08/08 12:27:14;;;;;;;1.92;1.30;;;;;;;;;;5073393;28;20027;-71
2021/08/08 12:29:41;;;;;;;5.18;1.40;;;;;;;;;;5072798;28;20050;-70
2021/08/08 12:32:12;;;;;;;2.65;1.42;;;;;;;;;;5073711;28;20472;-71
2021/08/08 12:34:39;;;;;;;2.70;1.30;;;;;;;;;;5073238;28;20035;-70
2021/08/08 12:37:07;;;;;;;2.05;1.45;;;;;;;;;;5071376;28;20484;-70
2021/08/08 12:39:34;;;;;;;3.13;1.45;;;;;;;;;;5073128;28;20029;-71
2021/08/08 12:42:02;;;;;;;2.92;1.40;;;;;;;;;;5071826;28;20024;-71
2021/08/08 12:44:36;;;;;;;1.80;1.23;;;;;;;;;;5071798;28;20029;-70
2021/08/08 12:47:04;;;;;;;2.15;1.15;;;;;;;;;;5073032;28;20024;-70
2021/08/08 12:49:34;;;;;;;3.25;1.42;;;;;;;;;;5072588;28;20146;-71
2021/08/08 12:52:00;;;;;;;1.45;1.05;;;;;;;;;;5073028;28;20027;-70
2021/08/08 12:54:27;;;;;;;1.50;1.10;;;;;;;;;;5072938;28;20021;-70
2021/08/08 12:56:53;;;;;;;1.77;1.20;;;;;;;;;;5072509;28;20377;-71
2021/08/08 12:59:19;;;;;;;1.70;1.20;;;;;;;;;;5071671;28;20028;-71
2021/08/08 13:01:45;;;;;;;3.45;1.40;;;;;;;;;;5073182;28;20020;-72
2021/08/08 13:04:12;;;;;;;4.63;2.25;;;;;;;;;;5073315;28;20100;-71
2021/08/08 13:06:38;;;;;;;2.28;1.00;;;;;;;;;;5076805;28;20025;-71
2021/08/08 13:09:04;;;;;;;2.97;1.42;;;;;;;;;;5076601;28;20024;-71
2021/08/08 13:11:30;;;;;;;2.90;1.05;;;;;;;;;;5076221;28;20538;-70
2021/08/08 13:13:57;;;;;;;3.30;1.45;;;;;;;;;;5076477;28;20020;-70
2021/08/08 13:16:23;;;;;;;1.83;1.17;;;;;;;;;;5076453;28;20027;-71
2021/08/08 13:18:49;;;;;;;4.13;1.65;;;;;;;;;;5075800;28;20048;-71
2021/08/08 13:21:15;;;;;;;2.75;1.17;;;;;;;;;;5076679;28;20017;-71
2021/08/08 13:23:41;;;;;;;2.42;1.45;;;;;;;;;;5076346;28;20029;-71
2021/08/08 13:26:08;;;;;;;2.67;1.23;;;;;;;;;;5075975;28;20146;-71
2021/08/08 13:28:34;;;;;;;2.90;0.98;;;;;;;;;;5076240;28;20595;-70
2021/08/08 13:31:00;;;;;;;2.33;1.15;;;;;;;;;;5076129;28;20028;-71
2021/08/08 13:33:26;;;;;;;2.10;1.23;;;;;;;;;;5075759;28;20404;-71
2021/08/08 13:35:53;;;;;;;2.70;1.30;;;;;;;;;;5076290;28;20024;-71
2021/08/08 13:38:19;;;;;;;3.42;1.45;;;;;;;;;;5075569;28;20033;-71
2021/08/08 13:40:45;;;;;;;2.22;1.15;;;;;;;;;;5076329;28;20473;-71
2021/08/08 13:43:11;;;;;;;1.27;1.00;;;;;;;;;;5075947;28;20086;-71
2021/08/08 13:45:37;;;;;;;2.15;1.10;;;;;;;;;;5075508;28;20629;-71
2021/08/08 13:48:04;;;;;;;2.70;1.30;;;;;;;;;;5075931;28;20488;-71
2021/08/08 13:50:30;;;;;;;2.55;1.33;;;;;;;;;;5076021;28;20017;-70
2021/08/08 13:52:56;;;;;;;1.67;0.93;;;;;;;;;;5075322;28;20028;-70
2021/08/08 13:55:23;;;;;;;2.10;1.52;;;;;;;;;;5075799;28;20023;-71
2021/08/08 13:57:50;;;;;;;1.80;1.40;;;;;;;;;;5075622;28;20052;-70
2021/08/08 14:00:17;;;;;;;2.45;1.30;;;;;;;;;;5075405;28;20025;-70
2021/08/08 14:02:43;;;;;;;3.25;1.10;;;;;;;;;;5075978;28;20464;-71
2021/08/08 14:05:10;;;;;;;4.25;1.52;;;;;;;;;;5075629;28;20028;-71
2021/08/08 14:07:37;;;;;;;2.17;1.60;;;;;;;;;;5075103;28;20025;-71
2021/08/08 14:10:04;;;;;;;1.77;1.23;;;;;;;;;;5075457;28;20376;-70
2021/08/08 14:12:30;;;;;;;3.90;1.55;;;;;;;;;;5075485;28;20476;-71
2021/08/08 14:14:56;;;;;;;3.75;1.50;;;;;;;;;;5074940;28;20031;-71
2021/08/08 14:17:23;;;;;;;3.70;1.40;;;;;;;;;;5075313;28;20048;-71
2021/08/08 14:19:49;;;;;;;3.08;1.67;;;;;;;;;;5074000;28;20464;-71
2021/08/08 14:22:15;;;;;;;4.65;1.80;;;;;;;;;;5074912;28;20108;-72
2021/08/08 14:24:42;;;;;;;4.32;1.48;;;;;;;;;;5075123;28;20035;-71
2021/08/08 14:27:08;;;;;;;3.22;1.73;;;;;;;;;;5075153;28;20077;-71
2021/08/08 14:29:34;;;;;;;2.30;1.40;;;;;;;;;;5073437;28;20414;-71
2021/08/08 14:32:00;;;;;;;3.15;1.55;;;;;;;;;;5075104;28;20031;-70
2021/08/08 14:34:26;;;;;;;2.22;1.60;;;;;;;;;;5075012;28;20022;-70
2021/08/08 14:36:53;;;;;;;2.15;1.40;;;;;;;;;;5074597;28;20020;-71
2021/08/08 14:39:19;;;;;;;2.65;1.73;;;;;;;;;;5074839;28;20032;-70
2021/08/08 14:41:45;;;;;;;2.20;1.60;;;;;;;;;;5074754;28;20032;-71
2021/08/08 14:44:12;;;;;;;2.22;1.50;;;;;;;;;;5075133;28;20025;-71
2021/08/08 14:46:38;;;;;;;4.55;1.70;;;;;;;;;;5074841;28;20092;-70
2021/08/08 14:49:04;;;;;;;4.32;1.50;;;;;;;;;;5074501;28;20492;-70
2021/08/08 14:51:32;;;;;;;4.68;1.40;;;;;;;;;;5074660;28;20032;-71
2021/08/08 14:53:59;;;;;;;1.95;1.25;;;;;;;;;;5074546;28;20021;-71
2021/08/08 14:56:25;;;;;;;3.30;1.40;;;;;;;;;;5072951;28;20047;-70
2021/08/08 14:58:51;;;;;;;2.95;1.60;;;;;;;;;;5074442;28;20078;-71
2021/08/08 15:01:18;;;;;;;2.92;1.60;;;;;;;;;;5074474;28;20473;-71
2021/08/08 15:03:44;;;;;;;2.80;1.58;;;;;;;;;;5072769;28;20434;-70
2021/08/08 15:06:10;;;;;;;2.63;1.60;;;;;;;;;;5074374;28;20099;-70
2021/08/08 15:08:36;;;;;;;2.45;1.63;;;;;;;;;;5074322;28;20051;-71
2021/08/08 15:11:03;;;;;;;4.10;1.60;;;;;;;;;;5072608;28;20055;-70
2021/08/08 15:13:29;;;;;;;3.92;2.15;;;;;;;;;;5074203;28;20075;-70
2021/08/08 15:15:55;;;;;;;1.85;1.52;;;;;;;;;;5074509;28;20028;-70
2021/08/08 15:18:21;;;;;;;2.78;1.50;;;;;;;;;;5072177;28;20075;-70
2021/08/08 15:20:47;;;;;;;2.55;1.52;;;;;;;;;;5074309;28;20020;-70
2021/08/08 15:23:14;;;;;;;3.10;1.30;;;;;;;;;;5074114;28;20034;-71
2021/08/08 15:25:40;;;;;;;3.72;1.60;;;;;;;;;;5073629;28;20024;-71
2021/08/08 15:28:06;;;;;;;2.65;1.75;;;;;;;;;;5073622;28;20027;-71
2021/08/08 15:30:32;;;;;;;4.85;2.17;;;;;;;;;;5073899;28;20100;-70
2021/08/08 15:32:58;;;;;;;2.33;1.60;;;;;;;;;;5073572;28;20016;-69
2021/08/08 15:35:24;;;;;;;2.42;1.70;;;;;;;;;;5073824;28;20057;-70
2021/08/08 15:37:51;;;;;;;4.15;1.90;;;;;;;;;;5073622;28;20051;-70
2021/08/08 15:40:17;;;;;;;3.00;2.05;;;;;;;;;;5073359;28;20103;-70
2021/08/08 15:42:43;;;;;;;2.22;1.38;;;;;;;;;;5074001;28;20548;-71
2021/08/08 15:45:10;;;;;;;2.15;1.40;;;;;;;;;;5073197;28;20038;-71
2021/08/08 15:47:36;;;;;;;2.72;1.65;;;;;;;;;;5073683;28;20100;-70
2021/08/08 15:50:03;;;;;;;2.65;1.60;;;;;;;;;;5073675;28;20024;-70
2021/08/08 15:52:29;;;;;;;6.07;2.05;;;;;;;;;;5073280;28;20423;-70